createdAt,value
2017-08-19T00:01:37.186Z,15.27
2017-08-19T00:04:06.340Z,15.26
2017-08-19T00:06:36.175Z,15.25
2017-08-19T00:09:05.269Z,15.26
2017-08-19T00:11:35.115Z,15.28
2017-08-19T00:14:04.168Z,15.23
2017-08-19T00:16:34.166Z,15.21
2017-08-19T00:19:03.250Z,15.23
2017-08-19T00:21:32.305Z,15.20
2017-08-19T00:24:01.388Z,15.17
2017-08-19T00:26:30.481Z,15.11
2017-08-19T00:28:59.537Z,15.09
2017-08-19T00:31:28.579Z,15.07
2017-08-19T00:33:57.660Z,15.07
2017-08-19T00:36:26.730Z,15.06
2017-08-19T00:38:56.568Z,15.06
2017-08-19T00:41:25.623Z,15.01
2017-08-19T00:43:54.717Z,15.01
2017-08-19T00:46:23.804Z,14.96
2017-08-19T00:48:52.895Z,14.98
2017-08-19T00:51:21.967Z,14.97
2017-08-19T00:53:51.043Z,14.97
2017-08-19T00:56:20.111Z,14.94
2017-08-19T00:58:49.942Z,14.92
2017-08-19T01:01:19.009Z,14.93
2017-08-19T01:03:48.092Z,14.93
2017-08-19T01:06:17.177Z,14.91
2017-08-19T01:08:46.252Z,14.89
2017-08-19T01:11:15.303Z,14.88
2017-08-19T01:13:45.131Z,14.86
2017-08-19T01:16:14.300Z,14.87
2017-08-19T01:18:44.126Z,14.86
2017-08-19T01:21:13.948Z,14.84
2017-08-19T01:23:43.007Z,14.83
2017-08-19T01:26:30.016Z,14.81
2017-08-19T01:28:59.052Z,14.77
2017-08-19T01:31:28.135Z,14.70
2017-08-19T01:33:57.985Z,14.71
2017-08-19T01:36:27.047Z,14.70
2017-08-19T01:38:56.871Z,14.69
2017-08-19T01:41:25.920Z,14.68
2017-08-19T01:43:54.999Z,14.61
2017-08-19T01:46:24.183Z,14.56
2017-08-19T01:48:53.264Z,14.56
2017-08-19T01:51:22.340Z,14.58
2017-08-19T01:53:52.144Z,14.58
2017-08-19T01:56:22.000Z,14.56
2017-08-19T01:58:51.063Z,14.58
2017-08-19T02:01:20.873Z,14.60
2017-08-19T02:03:50.768Z,14.61
2017-08-19T02:06:19.824Z,14.56
2017-08-19T02:08:48.907Z,14.58
2017-08-19T02:11:17.959Z,14.57
2017-08-19T02:13:47.143Z,14.50
2017-08-19T02:16:16.189Z,14.47
2017-08-19T02:18:45.264Z,14.48
2017-08-19T02:21:15.078Z,14.47
2017-08-19T02:23:44.127Z,14.47
2017-08-19T02:26:13.207Z,14.45
2017-08-19T02:28:42.299Z,14.37
2017-08-19T02:31:11.389Z,14.34
2017-08-19T02:33:40.432Z,14.33
2017-08-19T02:36:10.319Z,14.36
2017-08-19T02:38:39.372Z,14.35
2017-08-19T02:41:09.391Z,14.32
2017-08-19T02:43:39.221Z,14.30
2017-08-19T02:46:08.278Z,14.30
2017-08-19T02:48:38.111Z,14.26
2017-08-19T02:51:07.304Z,14.26
2017-08-19T02:53:37.143Z,14.23
2017-08-19T02:56:06.204Z,14.24
2017-08-19T02:58:36.007Z,14.21
2017-08-19T03:01:05.080Z,14.20
2017-08-19T03:03:34.120Z,14.19
2017-08-19T03:06:03.203Z,14.17
2017-08-19T03:08:33.027Z,14.19
2017-08-19T03:11:02.086Z,14.13
2017-08-19T03:13:31.151Z,14.10
2017-08-19T03:16:00.204Z,14.11
2017-08-19T03:18:30.008Z,14.12
2017-08-19T03:20:59.074Z,14.11
2017-08-19T03:23:28.140Z,14.11
2017-08-19T03:25:57.216Z,14.08
2017-08-19T03:28:26.286Z,14.05
2017-08-19T03:30:56.121Z,13.99
2017-08-19T03:33:25.225Z,14.00
2017-08-19T03:35:54.274Z,14.00
2017-08-19T03:38:23.371Z,14.02
2017-08-19T03:40:52.428Z,14.01
2017-08-19T03:43:21.508Z,14.03
2017-08-19T03:45:50.636Z,14.02
2017-08-19T03:48:19.679Z,14.00
2017-08-19T03:50:48.753Z,13.98
2017-08-19T03:53:18.604Z,13.99
2017-08-19T03:55:47.678Z,13.98
2017-08-19T03:58:17.483Z,13.95
2017-08-19T04:00:47.311Z,14.00
2017-08-19T04:03:16.413Z,13.99
2017-08-19T04:05:45.456Z,13.99
2017-08-19T04:08:14.559Z,13.98
2017-08-19T04:10:43.612Z,13.97
2017-08-19T04:13:13.070Z,13.95
2017-08-19T04:15:42.883Z,13.95
2017-08-19T04:18:11.935Z,13.91
2017-08-19T04:20:41.000Z,13.89
2017-08-19T04:23:10.095Z,13.85
2017-08-19T04:25:39.166Z,13.83
2017-08-19T04:28:08.262Z,13.85
2017-08-19T04:30:37.297Z,13.86
2017-08-19T04:33:06.505Z,13.90
2017-08-19T04:35:35.563Z,13.91
2017-08-19T04:38:05.462Z,13.91
2017-08-19T04:40:34.481Z,13.86
2017-08-19T04:43:03.552Z,13.85
2017-08-19T04:45:33.394Z,13.88
2017-08-19T04:48:02.475Z,13.93
2017-08-19T04:50:32.311Z,13.93
2017-08-19T04:53:01.510Z,13.95
2017-08-19T04:55:30.558Z,13.96
2017-08-19T04:57:59.608Z,13.96
2017-08-19T05:00:28.698Z,13.91
2017-08-19T05:02:57.725Z,13.94
2017-08-19T05:05:26.782Z,13.98
2017-08-19T05:07:55.854Z,13.98
2017-08-19T05:10:24.896Z,14.00
2017-08-19T05:12:53.967Z,14.01
2017-08-19T05:15:23.025Z,14.02
2017-08-19T05:17:52.843Z,14.06
2017-08-19T05:20:22.699Z,14.06
2017-08-19T05:22:51.768Z,14.06
2017-08-19T05:25:20.832Z,14.09
2017-08-19T05:27:49.873Z,14.09
2017-08-19T05:30:18.979Z,14.12
2017-08-19T05:32:48.043Z,14.12
2017-08-19T05:35:17.123Z,14.14
2017-08-19T05:37:46.976Z,14.16
2017-08-19T05:40:16.047Z,14.18
2017-08-19T05:42:45.874Z,14.25
2017-08-19T05:45:14.960Z,14.25
2017-08-19T05:47:45.689Z,14.27
2017-08-19T05:50:15.529Z,14.34
2017-08-19T05:52:44.579Z,14.38
2017-08-19T05:55:14.447Z,14.41
2017-08-19T05:57:43.508Z,14.42
2017-08-19T06:00:13.377Z,14.43
2017-08-19T06:02:42.468Z,14.48
2017-08-19T06:05:11.759Z,14.53
2017-08-19T06:07:40.819Z,14.58
2017-08-19T06:10:09.875Z,14.62
2017-08-19T06:12:38.984Z,14.69
2017-08-19T06:15:08.835Z,14.70
2017-08-19T06:17:37.923Z,14.77
2017-08-19T06:20:06.996Z,14.85
2017-08-19T06:22:36.825Z,14.91
2017-08-19T06:25:07.820Z,14.97
2017-08-19T06:27:36.972Z,14.96
2017-08-19T06:30:06.048Z,14.99
2017-08-19T06:32:35.875Z,15.04
2017-08-19T06:35:04.949Z,15.09
2017-08-19T06:37:34.775Z,15.13
2017-08-19T06:40:04.603Z,15.18
2017-08-19T06:42:33.707Z,15.24
2017-08-19T06:45:02.780Z,15.31
2017-08-19T06:47:31.861Z,15.36
2017-08-19T06:50:01.671Z,15.42
2017-08-19T06:52:31.528Z,15.50
2017-08-19T06:55:00.611Z,15.62
2017-08-19T06:57:29.665Z,15.67
2017-08-19T06:59:59.749Z,15.75
2017-08-19T07:02:28.824Z,15.88
2017-08-19T07:04:57.906Z,15.95
2017-08-19T07:07:26.972Z,16.04
2017-08-19T07:09:56.831Z,16.14
2017-08-19T07:12:25.885Z,16.17
2017-08-19T07:14:55.719Z,16.27
2017-08-19T07:17:24.781Z,16.38
2017-08-19T07:19:53.949Z,16.52
2017-08-19T07:22:23.035Z,16.61
2017-08-19T07:24:52.083Z,16.66
2017-08-19T07:27:21.913Z,16.74
2017-08-19T07:29:50.964Z,16.77
2017-08-19T07:32:20.386Z,16.85
2017-08-19T07:34:49.408Z,16.86
2017-08-19T07:37:18.484Z,16.85
2017-08-19T07:39:48.323Z,16.98
2017-08-19T07:42:17.384Z,17.01
2017-08-19T07:44:47.214Z,17.10
2017-08-19T07:47:16.272Z,17.16
2017-08-19T07:49:45.332Z,17.22
2017-08-19T07:52:14.415Z,17.19
2017-08-19T07:54:43.477Z,17.22
2017-08-19T07:57:13.328Z,17.30
2017-08-19T07:59:43.375Z,17.37
2017-08-19T08:02:12.462Z,17.54
2017-08-19T08:04:41.517Z,17.63
2017-08-19T08:07:11.382Z,17.72
2017-08-19T08:09:40.434Z,17.80
2017-08-19T08:12:09.480Z,17.83
2017-08-19T08:14:38.559Z,17.84
2017-08-19T08:17:07.652Z,17.82
2017-08-19T08:19:36.725Z,17.80
2017-08-19T08:22:05.827Z,17.71
2017-08-19T08:24:34.888Z,17.69
2017-08-19T08:27:04.907Z,17.66
2017-08-19T08:29:34.738Z,17.66
2017-08-19T08:32:03.802Z,17.61
2017-08-19T08:34:33.627Z,17.63
2017-08-19T08:37:03.492Z,17.68
2017-08-19T08:39:33.471Z,17.68
2017-08-19T08:42:02.537Z,17.64
2017-08-19T08:44:31.583Z,17.67
2017-08-19T08:47:00.659Z,17.63
2017-08-19T08:49:29.720Z,17.52
2017-08-19T08:51:58.795Z,17.50
2017-08-19T08:54:27.848Z,17.51
2017-08-19T08:56:56.913Z,17.57
2017-08-19T08:59:26.734Z,17.61
2017-08-19T09:01:56.580Z,17.68
2017-08-19T09:04:25.654Z,17.79
2017-08-19T09:06:55.515Z,17.85
2017-08-19T09:09:24.567Z,17.85
2017-08-19T09:11:53.903Z,17.91
2017-08-19T09:14:22.980Z,17.90
2017-08-19T09:16:52.044Z,17.76
2017-08-19T09:19:21.126Z,17.73
2017-08-19T09:21:50.953Z,17.69
2017-08-19T09:24:20.023Z,17.63
2017-08-19T09:26:49.066Z,17.62
2017-08-19T09:29:18.146Z,17.76
2017-08-19T09:31:47.242Z,17.85
2017-08-19T09:34:16.289Z,17.93
2017-08-19T09:36:45.393Z,17.91
2017-08-19T09:39:14.441Z,17.94
2017-08-19T09:41:43.515Z,18.13
2017-08-19T09:44:12.689Z,18.36
2017-08-19T09:46:41.750Z,18.49
2017-08-19T09:49:10.904Z,18.62
2017-08-19T09:51:40.746Z,18.78
2017-08-19T09:54:09.814Z,18.95
2017-08-19T09:56:40.556Z,19.10
2017-08-19T09:59:10.367Z,19.30
2017-08-19T10:01:41.392Z,19.40
2017-08-19T10:04:10.475Z,19.39
2017-08-19T10:06:39.522Z,19.36
2017-08-19T10:09:26.559Z,19.33
2017-08-19T10:11:55.668Z,19.22
2017-08-19T10:14:24.755Z,19.09
2017-08-19T10:16:53.803Z,18.97
2017-08-19T10:19:22.888Z,18.90
2017-08-19T10:21:51.939Z,18.88
2017-08-19T10:24:20.980Z,18.89
2017-08-19T10:26:51.797Z,18.91
2017-08-19T10:29:20.836Z,18.88
2017-08-19T10:31:49.917Z,18.93
2017-08-19T10:34:18.983Z,18.98
2017-08-19T10:36:48.052Z,19.06
2017-08-19T10:39:17.135Z,19.17
2017-08-19T10:41:46.213Z,19.36
2017-08-19T10:44:15.244Z,19.44
2017-08-19T10:46:44.284Z,19.53
2017-08-19T10:49:13.497Z,19.70
2017-08-19T10:51:42.548Z,19.82
2017-08-19T10:54:12.382Z,19.82
2017-08-19T10:56:41.524Z,19.81
2017-08-19T10:59:10.621Z,19.80
2017-08-19T11:01:39.696Z,19.70
2017-08-19T11:04:08.792Z,19.50
2017-08-19T11:06:37.840Z,19.36
2017-08-19T11:09:07.676Z,19.23
2017-08-19T11:11:38.224Z,19.18
2017-08-19T11:14:07.320Z,19.22
2017-08-19T11:16:36.415Z,19.29
2017-08-19T11:19:06.195Z,19.36
2017-08-19T11:21:36.029Z,19.43
2017-08-19T11:24:05.100Z,19.48
2017-08-19T11:26:34.928Z,19.53
2017-08-19T11:29:04.776Z,19.59
2017-08-19T11:31:33.835Z,19.62
2017-08-19T11:34:02.931Z,19.65
2017-08-19T11:36:32.139Z,19.74
2017-08-19T11:39:01.192Z,19.87
2017-08-19T11:41:30.245Z,20.01
2017-08-19T11:43:59.309Z,20.17
2017-08-19T11:46:28.373Z,20.24
2017-08-19T11:48:58.438Z,20.32
2017-08-19T11:51:27.516Z,20.24
2017-08-19T11:53:56.572Z,20.14
2017-08-19T11:56:25.640Z,20.09
2017-08-19T11:58:55.426Z,20.14
2017-08-19T12:01:25.133Z,20.28
2017-08-19T12:03:54.944Z,20.52
2017-08-19T12:06:24.001Z,20.61
2017-08-19T12:08:53.059Z,20.64
2017-08-19T12:11:22.109Z,20.80
2017-08-19T12:13:52.046Z,21.03
2017-08-19T12:16:21.865Z,21.15
2017-08-19T12:18:50.915Z,21.25
2017-08-19T12:21:20.011Z,21.33
2017-08-19T12:23:49.061Z,21.30
2017-08-19T12:26:18.165Z,21.32
2017-08-19T12:28:47.213Z,21.31
2017-08-19T12:31:17.044Z,21.31
2017-08-19T12:33:46.118Z,21.29
2017-08-19T12:36:15.326Z,21.19
2017-08-19T12:38:44.377Z,21.00
2017-08-19T12:41:13.453Z,21.01
2017-08-19T12:43:42.504Z,20.99
2017-08-19T12:46:12.363Z,21.05
2017-08-19T12:48:41.470Z,21.11
2017-08-19T12:51:10.620Z,21.07
2017-08-19T12:53:39.660Z,21.06
2017-08-19T12:56:08.717Z,21.04
2017-08-19T12:58:37.786Z,21.07
2017-08-19T13:01:06.867Z,21.14
2017-08-19T13:03:35.919Z,21.20
2017-08-19T13:06:05.287Z,21.29
2017-08-19T13:08:35.138Z,21.23
2017-08-19T13:11:04.216Z,21.07
2017-08-19T13:13:33.277Z,20.88
2017-08-19T13:16:02.359Z,20.75
2017-08-19T13:18:31.467Z,20.60
2017-08-19T13:21:00.504Z,20.48
2017-08-19T13:23:29.565Z,20.45
2017-08-19T13:25:58.620Z,20.54
2017-08-19T13:28:27.684Z,20.69
2017-08-19T13:30:56.758Z,20.79
2017-08-19T13:33:26.589Z,20.85
2017-08-19T13:35:55.806Z,20.92
2017-08-19T13:38:24.893Z,20.91
2017-08-19T13:40:54.823Z,20.88
2017-08-19T13:43:23.898Z,20.90
2017-08-19T13:45:52.944Z,21.02
2017-08-19T13:48:22.014Z,21.03
2017-08-19T13:50:51.082Z,21.11
2017-08-19T13:53:20.149Z,21.11
2017-08-19T13:55:49.212Z,21.04
2017-08-19T13:58:18.290Z,20.90
2017-08-19T14:00:47.372Z,20.84
2017-08-19T14:03:16.520Z,20.77
2017-08-19T14:05:45.586Z,20.66
2017-08-19T14:08:14.664Z,20.48
2017-08-19T14:10:43.704Z,20.33
2017-08-19T14:13:12.787Z,20.26
2017-08-19T14:15:41.867Z,20.31
2017-08-19T14:18:10.942Z,20.35
2017-08-19T14:20:40.284Z,20.46
2017-08-19T14:23:09.408Z,20.51
2017-08-19T14:25:39.237Z,20.51
2017-08-19T14:28:08.322Z,20.51
2017-08-19T14:30:38.136Z,20.51
2017-08-19T14:33:08.174Z,20.51
2017-08-19T14:35:37.213Z,20.54
2017-08-19T14:38:06.287Z,20.51
2017-08-19T14:40:35.356Z,20.43
2017-08-19T14:43:04.391Z,20.37
2017-08-19T14:45:33.444Z,20.30
2017-08-19T14:48:02.544Z,20.31
2017-08-19T14:50:31.868Z,20.35
2017-08-19T14:53:00.915Z,20.30
2017-08-19T14:55:30.191Z,20.23
2017-08-19T14:57:59.261Z,20.15
2017-08-19T15:00:28.324Z,19.87
2017-08-19T15:02:57.393Z,19.53
2017-08-19T15:05:27.214Z,19.10
2017-08-19T15:07:57.160Z,18.78
2017-08-19T15:10:26.244Z,18.45
2017-08-19T15:12:55.272Z,18.34
2017-08-19T15:15:24.668Z,18.23
2017-08-19T15:17:53.724Z,18.26
2017-08-19T15:20:22.813Z,18.26
2017-08-19T15:22:52.646Z,18.32
2017-08-19T15:25:21.695Z,18.38
2017-08-19T15:27:50.788Z,18.42
2017-08-19T15:30:19.844Z,18.43
2017-08-19T15:32:48.883Z,18.47
2017-08-19T15:35:17.971Z,18.54
2017-08-19T15:37:47.038Z,18.64
2017-08-19T15:40:16.144Z,18.70
2017-08-19T15:42:45.218Z,18.86
2017-08-19T15:45:14.377Z,18.95
2017-08-19T15:47:43.456Z,19.03
2017-08-19T15:50:13.344Z,19.07
2017-08-19T15:52:42.383Z,18.99
2017-08-19T15:55:12.227Z,18.99
2017-08-19T15:57:41.287Z,18.88
2017-08-19T16:00:11.124Z,18.81
2017-08-19T16:02:40.186Z,18.80
2017-08-19T16:05:09.284Z,18.70
2017-08-19T16:07:38.358Z,18.52
2017-08-19T16:10:07.417Z,18.27
2017-08-19T16:12:36.488Z,18.05
2017-08-19T16:15:06.300Z,17.80
2017-08-19T16:17:35.388Z,17.55
2017-08-19T16:20:05.203Z,17.42
2017-08-19T16:22:35.024Z,17.30
2017-08-19T16:25:04.079Z,17.19
2017-08-19T16:27:33.145Z,17.18
2017-08-19T16:30:02.204Z,17.04
2017-08-19T16:32:31.296Z,17.03
2017-08-19T16:35:01.133Z,17.09
2017-08-19T16:37:30.210Z,17.10
2017-08-19T16:39:59.314Z,17.08
2017-08-19T16:42:29.152Z,17.05
2017-08-19T16:44:58.221Z,17.05
2017-08-19T16:47:28.063Z,17.08
2017-08-19T16:49:57.108Z,17.11
2017-08-19T16:52:26.932Z,17.09
2017-08-19T16:54:56.798Z,17.13
2017-08-19T16:57:25.851Z,17.13
2017-08-19T16:59:54.924Z,17.15
2017-08-19T17:02:23.955Z,17.16
2017-08-19T17:04:53.024Z,17.15
2017-08-19T17:07:22.117Z,17.18
2017-08-19T17:09:51.944Z,17.19
2017-08-19T17:12:21.030Z,17.16
2017-08-19T17:14:50.094Z,17.17
2017-08-19T17:17:19.190Z,17.19
2017-08-19T17:19:48.236Z,17.16
2017-08-19T17:22:17.367Z,17.20
2017-08-19T17:24:46.872Z,17.22
2017-08-19T17:27:16.221Z,17.23
2017-08-19T17:29:45.294Z,17.23
2017-08-19T17:32:14.461Z,17.21
2017-08-19T17:34:43.539Z,17.21
2017-08-19T17:37:12.572Z,17.20
2017-08-19T17:39:41.650Z,17.13
2017-08-19T17:42:10.734Z,17.13
2017-08-19T17:44:39.788Z,17.14
2017-08-19T17:47:08.870Z,17.15
2017-08-19T17:49:38.684Z,17.14
2017-08-19T17:52:08.546Z,17.11
2017-08-19T17:54:37.611Z,17.09
2017-08-19T17:57:06.674Z,17.09
2017-08-19T17:59:35.728Z,17.06
2017-08-19T18:02:04.807Z,17.03
2017-08-19T18:04:33.864Z,17.06
2017-08-19T18:07:03.705Z,17.07
2017-08-19T18:09:32.833Z,17.08
2017-08-19T18:12:01.881Z,17.09
2017-08-19T18:14:31.710Z,17.11
2017-08-19T18:17:01.234Z,17.11
2017-08-19T18:19:30.277Z,17.10
2017-08-19T18:21:59.373Z,17.10
2017-08-19T18:24:28.444Z,17.10
2017-08-19T18:26:57.516Z,17.10
2017-08-19T18:29:26.572Z,17.11
2017-08-19T18:31:55.632Z,17.10
2017-08-19T18:34:24.716Z,17.07
2017-08-19T18:36:54.395Z,17.06
2017-08-19T18:39:23.480Z,17.03
2017-08-19T18:41:53.314Z,16.98
2017-08-19T18:44:22.395Z,16.98
2017-08-19T18:46:51.447Z,16.96
2017-08-19T18:49:20.489Z,16.96
2017-08-19T18:51:49.527Z,16.93
2017-08-19T18:54:18.623Z,16.90
2017-08-19T18:56:47.667Z,16.88
2017-08-19T18:59:17.017Z,16.85
2017-08-19T19:01:46.074Z,16.80
2017-08-19T19:04:15.125Z,16.73
2017-08-19T19:06:44.197Z,16.66
2017-08-19T19:09:13.315Z,16.65
2017-08-19T19:11:42.372Z,16.66
2017-08-19T19:14:11.501Z,16.64
2017-08-19T19:16:40.602Z,16.63
2017-08-19T19:19:09.657Z,16.65
2017-08-19T19:21:38.744Z,16.68
2017-08-19T19:24:08.073Z,16.66
2017-08-19T19:26:37.162Z,16.63
2017-08-19T19:29:06.236Z,16.61
2017-08-19T19:31:35.516Z,16.61
2017-08-19T19:34:04.588Z,16.64
2017-08-19T19:36:34.424Z,16.64
2017-08-19T19:39:03.497Z,16.62
2017-08-19T19:41:32.552Z,16.59
2017-08-19T19:44:01.621Z,16.55
2017-08-19T19:46:31.425Z,16.56
2017-08-19T19:49:00.494Z,16.56
2017-08-19T19:51:30.345Z,16.55
2017-08-19T19:53:59.398Z,16.53
2017-08-19T19:56:28.490Z,16.54
2017-08-19T19:58:58.317Z,16.55
2017-08-19T20:01:27.697Z,16.52
2017-08-19T20:03:56.756Z,16.53
2017-08-19T20:06:25.843Z,16.52
2017-08-19T20:08:54.905Z,16.48
2017-08-19T20:11:24.738Z,16.47
2017-08-19T20:13:54.536Z,16.45
2017-08-19T20:16:23.605Z,16.44
2017-08-19T20:18:52.676Z,16.42
2017-08-19T20:21:21.740Z,16.36
2017-08-19T20:23:50.808Z,16.37
2017-08-19T20:26:20.850Z,16.33
2017-08-19T20:28:49.915Z,16.30
2017-08-19T20:31:18.971Z,16.25
2017-08-19T20:33:48.042Z,16.21
2017-08-19T20:36:17.100Z,16.21
2017-08-19T20:38:46.945Z,16.19
2017-08-19T20:41:16.026Z,16.17
2017-08-19T20:43:45.337Z,16.13
2017-08-19T20:46:14.420Z,16.06
2017-08-19T20:48:44.253Z,16.04
2017-08-19T20:51:13.398Z,16.01
2017-08-19T20:53:42.489Z,15.99
2017-08-19T20:56:12.485Z,15.93
2017-08-19T20:58:41.559Z,15.91
2017-08-19T21:01:10.627Z,15.89
2017-08-19T21:03:40.548Z,15.87
2017-08-19T21:06:09.619Z,15.87
2017-08-19T21:08:38.713Z,15.82
2017-08-19T21:11:07.767Z,15.78
2017-08-19T21:13:36.951Z,15.77
2017-08-19T21:16:06.044Z,15.74
2017-08-19T21:18:35.090Z,15.74
2017-08-19T21:21:04.158Z,15.74
2017-08-19T21:23:33.233Z,15.68
2017-08-19T21:26:02.304Z,15.67
2017-08-19T21:28:32.124Z,15.65
2017-08-19T21:31:01.193Z,15.63
2017-08-19T21:33:30.265Z,15.61
2017-08-19T21:35:59.317Z,15.60
2017-08-19T21:38:28.437Z,15.55
2017-08-19T21:40:57.526Z,15.51
2017-08-19T21:43:26.580Z,15.47
2017-08-19T21:45:56.434Z,15.47
2017-08-19T21:48:25.494Z,15.45
2017-08-19T21:50:54.552Z,15.40
2017-08-19T21:53:23.627Z,15.40
2017-08-19T21:55:52.701Z,15.36
2017-08-19T21:58:21.783Z,15.35
2017-08-19T22:00:51.693Z,15.33
2017-08-19T22:03:20.888Z,15.32
2017-08-19T22:05:49.992Z,15.36
2017-08-19T22:08:19.835Z,15.34
2017-08-19T22:10:48.914Z,15.30
2017-08-19T22:13:17.956Z,15.27
2017-08-19T22:15:47.016Z,15.24
2017-08-19T22:18:16.122Z,15.23
2017-08-19T22:20:45.155Z,15.23
2017-08-19T22:23:14.967Z,15.26
2017-08-19T22:25:44.803Z,15.22
2017-08-19T22:28:13.900Z,15.16
2017-08-19T22:30:42.953Z,15.16
2017-08-19T22:33:12.035Z,15.17
2017-08-19T22:35:41.163Z,15.15
2017-08-19T22:38:11.022Z,15.12
2017-08-19T22:40:40.144Z,15.11
2017-08-19T22:43:09.204Z,15.09
2017-08-19T22:45:38.275Z,15.11
2017-08-19T22:48:08.141Z,15.11
2017-08-19T22:50:37.196Z,15.10
2017-08-19T22:53:06.279Z,15.10
2017-08-19T22:55:35.348Z,15.11
2017-08-19T22:58:04.571Z,15.10
2017-08-19T23:00:33.643Z,15.12
2017-08-19T23:03:02.679Z,15.16
2017-08-19T23:05:31.760Z,15.17
2017-08-19T23:08:01.590Z,15.17
2017-08-19T23:10:30.651Z,15.16
2017-08-19T23:12:59.746Z,15.16
2017-08-19T23:15:28.816Z,15.19
2017-08-19T23:17:58.650Z,15.20
2017-08-19T23:20:27.703Z,15.18
2017-08-19T23:22:56.755Z,15.17
2017-08-19T23:25:26.601Z,15.19
2017-08-19T23:27:55.656Z,15.21
2017-08-19T23:30:25.465Z,15.22
2017-08-19T23:32:55.321Z,15.22
2017-08-19T23:35:24.385Z,15.26
2017-08-19T23:37:53.736Z,15.24
2017-08-19T23:40:22.785Z,15.24
2017-08-19T23:42:51.865Z,15.28
2017-08-19T23:45:21.710Z,15.32
2017-08-19T23:47:50.776Z,15.36
2017-08-19T23:50:20.620Z,15.32
2017-08-19T23:52:49.704Z,15.37
2017-08-19T23:55:18.799Z,15.42
2017-08-19T23:57:47.899Z,15.42
